sensor_id;sensor_type;location;lat;lon;timestamp;temperature;humidity
435;DHT22;204;48.942;9.256;2022-12-16T00:00:24;0.00;1.00
435;DHT22;204;48.942;9.256;2022-12-16T00:02:51;0.00;1.00
435;DHT22;204;48.942;9.256;2022-12-16T00:05:17;-0.10;1.00
435;DHT22;204;48.942;9.256;2022-12-16T00:07:44;-0.10;1.00
435;DHT22;204;48.942;9.256;2022-12-16T00:10:10;-0.10;1.00
435;DHT22;204;48.942;9.256;2022-12-16T00:12:36;0.00;1.00
435;DHT22;204;48.942;9.256;2022-12-16T00:15:02;0.00;1.00
435;DHT22;204;48.942;9.256;2022-12-16T00:17:27;0.00;1.00
435;DHT22;204;48.942;9.256;2022-12-16T00:19:53;0.10;1.00
435;DHT22;204;48.942;9.256;2022-12-16T00:22:19;0.10;1.00
435;DHT22;204;48.942;9.256;2022-12-16T00:24:44;0.10;1.00
435;DHT22;204;48.942;9.256;2022-12-16T00:27:10;0.10;1.00
435;DHT22;204;48.942;9.256;2022-12-16T00:29:35;0.20;1.00
435;DHT22;204;48.942;9.256;2022-12-16T00:32:01;0.20;1.00
435;DHT22;204;48.942;9.256;2022-12-16T00:34:27;0.30;1.00
435;DHT22;204;48.942;9.256;2022-12-16T00:36:53;0.30;1.00
435;DHT22;204;48.942;9.256;2022-12-16T00:39:18;0.20;1.00
435;DHT22;204;48.942;9.256;2022-12-16T00:41:44;0.20;1.00
435;DHT22;204;48.942;9.256;2022-12-16T00:44:11;0.20;1.00
435;DHT22;204;48.942;9.256;2022-12-16T00:46:37;0.30;1.00
435;DHT22;204;48.942;9.256;2022-12-16T00:49:02;0.30;1.00
435;DHT22;204;48.942;9.256;2022-12-16T00:51:28;0.30;1.00
435;DHT22;204;48.942;9.256;2022-12-16T00:53:54;0.30;1.00
435;DHT22;204;48.942;9.256;2022-12-16T00:56:19;0.20;1.00
435;DHT22;204;48.942;9.256;2022-12-16T00:58:45;0.20;1.00
435;DHT22;204;48.942;9.256;2022-12-16T01:01:12;0.30;1.00
435;DHT22;204;48.942;9.256;2022-12-16T01:03:38;0.30;1.00
435;DHT22;204;48.942;9.256;2022-12-16T01:06:12;0.30;1.00
435;DHT22;204;48.942;9.256;2022-12-16T01:08:38;0.40;1.00
435;DHT22;204;48.942;9.256;2022-12-16T01:11:04;0.40;1.00
435;DHT22;204;48.942;9.256;2022-12-16T01:13:30;0.40;1.00
435;DHT22;204;48.942;9.256;2022-12-16T01:15:59;0.30;1.00
435;DHT22;204;48.942;9.256;2022-12-16T01:18:24;0.40;1.00
435;DHT22;204;48.942;9.256;2022-12-16T01:20:50;0.40;1.00
435;DHT22;204;48.942;9.256;2022-12-16T01:23:16;0.30;1.00
435;DHT22;204;48.942;9.256;2022-12-16T01:25:41;0.30;1.00
435;DHT22;204;48.942;9.256;2022-12-16T01:28:07;0.30;1.00
435;DHT22;204;48.942;9.256;2022-12-16T01:30:33;0.30;1.00
435;DHT22;204;48.942;9.256;2022-12-16T01:32:58;0.30;1.00
435;DHT22;204;48.942;9.256;2022-12-16T01:35:24;0.20;1.00
435;DHT22;204;48.942;9.256;2022-12-16T01:37:49;0.20;1.00
435;DHT22;204;48.942;9.256;2022-12-16T01:40:20;0.20;1.00
435;DHT22;204;48.942;9.256;2022-12-16T01:42:46;0.20;1.00
435;DHT22;204;48.942;9.256;2022-12-16T01:45:32;0.10;1.00
435;DHT22;204;48.942;9.256;2022-12-16T01:48:02;0.10;1.00
435;DHT22;204;48.942;9.256;2022-12-16T01:50:30;0.10;1.00
435;DHT22;204;48.942;9.256;2022-12-16T01:52:58;0.10;1.00
435;DHT22;204;48.942;9.256;2022-12-16T01:55:39;0.10;1.00
435;DHT22;204;48.942;9.256;2022-12-16T01:58:12;0.00;1.00
435;DHT22;204;48.942;9.256;2022-12-16T02:00:39;0.00;1.00
435;DHT22;204;48.942;9.256;2022-12-16T02:03:05;0.10;1.00
435;DHT22;204;48.942;9.256;2022-12-16T02:05:33;0.10;1.00
435;DHT22;204;48.942;9.256;2022-12-16T02:13:44;0.20;1.00
435;DHT22;204;48.942;9.256;2022-12-16T02:19:02;0.10;1.00
435;DHT22;204;48.942;9.256;2022-12-16T02:24:27;0.10;1.00
435;DHT22;204;48.942;9.256;2022-12-16T02:30:04;0.10;1.00
435;DHT22;204;48.942;9.256;2022-12-16T02:35:50;0.20;1.00
435;DHT22;204;48.942;9.256;2022-12-16T02:41:16;0.10;1.00
435;DHT22;204;48.942;9.256;2022-12-16T02:44:00;0.10;1.00
435;DHT22;204;48.942;9.256;2022-12-16T02:46:28;0.10;1.00
435;DHT22;204;48.942;9.256;2022-12-16T02:48:55;0.10;1.00
435;DHT22;204;48.942;9.256;2022-12-16T02:51:23;0.10;1.00
435;DHT22;204;48.942;9.256;2022-12-16T02:53:49;0.00;1.00
435;DHT22;204;48.942;9.256;2022-12-16T02:59:02;-0.10;1.00
435;DHT22;204;48.942;9.256;2022-12-16T03:04:21;-0.10;1.00
435;DHT22;204;48.942;9.256;2022-12-16T03:06:52;-0.10;1.00
435;DHT22;204;48.942;9.256;2022-12-16T03:09:22;-0.10;1.00
435;DHT22;204;48.942;9.256;2022-12-16T03:11:50;-0.10;1.00
435;DHT22;204;48.942;9.256;2022-12-16T03:14:18;-0.10;1.00
435;DHT22;204;48.942;9.256;2022-12-16T03:16:46;-0.10;1.00
435;DHT22;204;48.942;9.256;2022-12-16T03:19:12;-0.10;1.00
435;DHT22;204;48.942;9.256;2022-12-16T03:22:05;0.00;1.00
435;DHT22;204;48.942;9.256;2022-12-16T03:24:29;0.00;1.00
435;DHT22;204;48.942;9.256;2022-12-16T03:30:03;0.00;1.00
435;DHT22;204;48.942;9.256;2022-12-16T03:35:36;-0.10;1.00
435;DHT22;204;48.942;9.256;2022-12-16T03:38:04;-0.10;1.00
435;DHT22;204;48.942;9.256;2022-12-16T03:40:32;-0.10;1.00
435;DHT22;204;48.942;9.256;2022-12-16T03:42:59;-0.10;1.00
435;DHT22;204;48.942;9.256;2022-12-16T03:45:29;-0.10;1.00
435;DHT22;204;48.942;9.256;2022-12-16T03:47:57;-0.10;1.00
435;DHT22;204;48.942;9.256;2022-12-16T03:50:28;-0.10;1.00
435;DHT22;204;48.942;9.256;2022-12-16T03:52:55;-0.10;1.00
435;DHT22;204;48.942;9.256;2022-12-16T03:55:20;-0.10;1.00
435;DHT22;204;48.942;9.256;2022-12-16T03:57:46;-0.20;1.00
435;DHT22;204;48.942;9.256;2022-12-16T04:00:12;-0.10;1.00
435;DHT22;204;48.942;9.256;2022-12-16T04:02:38;-0.10;1.00
435;DHT22;204;48.942;9.256;2022-12-16T04:05:04;-0.10;1.00
435;DHT22;204;48.942;9.256;2022-12-16T04:07:30;-0.10;1.00
435;DHT22;204;48.942;9.256;2022-12-16T04:09:56;-0.10;1.00
435;DHT22;204;48.942;9.256;2022-12-16T04:12:22;-0.10;1.00
435;DHT22;204;48.942;9.256;2022-12-16T04:15:06;-0.10;1.00
435;DHT22;204;48.942;9.256;2022-12-16T04:17:44;-0.10;1.00
435;DHT22;204;48.942;9.256;2022-12-16T04:20:31;-0.10;1.00
435;DHT22;204;48.942;9.256;2022-12-16T04:23:16;-0.10;1.00
435;DHT22;204;48.942;9.256;2022-12-16T04:26:01;0.00;1.00
435;DHT22;204;48.942;9.256;2022-12-16T04:28:27;0.10;1.00
435;DHT22;204;48.942;9.256;2022-12-16T04:30:52;0.10;1.00
435;DHT22;204;48.942;9.256;2022-12-16T04:33:19;0.10;1.00
435;DHT22;204;48.942;9.256;2022-12-16T04:36:03;0.10;1.00
435;DHT22;204;48.942;9.256;2022-12-16T04:38:47;0.10;1.00
435;DHT22;204;48.942;9.256;2022-12-16T04:41:31;0.20;1.00
435;DHT22;204;48.942;9.256;2022-12-16T04:44:15;0.20;1.00
435;DHT22;204;48.942;9.256;2022-12-16T04:46:59;0.30;1.00
435;DHT22;204;48.942;9.256;2022-12-16T04:49:43;0.30;1.00
435;DHT22;204;48.942;9.256;2022-12-16T04:52:27;0.30;1.00
435;DHT22;204;48.942;9.256;2022-12-16T04:55:11;0.40;1.00
435;DHT22;204;48.942;9.256;2022-12-16T04:57:58;0.40;1.00
435;DHT22;204;48.942;9.256;2022-12-16T05:00:43;0.40;1.00
435;DHT22;204;48.942;9.256;2022-12-16T05:03:28;0.40;1.00
435;DHT22;204;48.942;9.256;2022-12-16T05:06:13;0.50;1.00
435;DHT22;204;48.942;9.256;2022-12-16T05:09:17;0.50;1.00
435;DHT22;204;48.942;9.256;2022-12-16T05:12:01;0.50;1.00
435;DHT22;204;48.942;9.256;2022-12-16T05:14:45;0.60;1.00
435;DHT22;204;48.942;9.256;2022-12-16T05:17:29;0.70;1.00
435;DHT22;204;48.942;9.256;2022-12-16T05:20:30;0.70;1.00
435;DHT22;204;48.942;9.256;2022-12-16T05:23:14;0.80;1.00
435;DHT22;204;48.942;9.256;2022-12-16T05:25:58;0.80;1.00
435;DHT22;204;48.942;9.256;2022-12-16T05:28:42;0.80;1.00
435;DHT22;204;48.942;9.256;2022-12-16T05:31:26;0.80;1.00
435;DHT22;204;48.942;9.256;2022-12-16T05:34:10;0.80;1.00
435;DHT22;204;48.942;9.256;2022-12-16T05:36:54;0.90;1.00
435;DHT22;204;48.942;9.256;2022-12-16T05:39:38;0.90;1.00
435;DHT22;204;48.942;9.256;2022-12-16T05:42:22;0.80;1.00
435;DHT22;204;48.942;9.256;2022-12-16T05:45:26;0.80;1.00
435;DHT22;204;48.942;9.256;2022-12-16T05:48:10;0.80;1.00
435;DHT22;204;48.942;9.256;2022-12-16T05:50:54;0.80;1.00
435;DHT22;204;48.942;9.256;2022-12-16T05:53:38;0.80;1.00
435;DHT22;204;48.942;9.256;2022-12-16T05:56:22;0.70;1.00
435;DHT22;204;48.942;9.256;2022-12-16T05:59:06;0.70;1.00
435;DHT22;204;48.942;9.256;2022-12-16T06:01:50;0.70;1.00
435;DHT22;204;48.942;9.256;2022-12-16T06:04:34;0.70;1.00
435;DHT22;204;48.942;9.256;2022-12-16T06:07:19;0.70;1.00
435;DHT22;204;48.942;9.256;2022-12-16T06:10:03;0.70;1.00
435;DHT22;204;48.942;9.256;2022-12-16T06:12:47;0.70;1.00
435;DHT22;204;48.942;9.256;2022-12-16T06:15:31;0.70;1.00
435;DHT22;204;48.942;9.256;2022-12-16T06:18:16;0.70;1.00
435;DHT22;204;48.942;9.256;2022-12-16T06:21:00;0.70;1.00
435;DHT22;204;48.942;9.256;2022-12-16T06:23:44;0.80;1.00
435;DHT22;204;48.942;9.256;2022-12-16T06:26:28;0.80;1.00
435;DHT22;204;48.942;9.256;2022-12-16T06:29:12;0.80;1.00
435;DHT22;204;48.942;9.256;2022-12-16T06:31:56;0.70;1.00
435;DHT22;204;48.942;9.256;2022-12-16T06:34:40;0.70;1.00
435;DHT22;204;48.942;9.256;2022-12-16T06:37:24;0.70;1.00
435;DHT22;204;48.942;9.256;2022-12-16T06:40:09;0.70;1.00
435;DHT22;204;48.942;9.256;2022-12-16T06:42:53;0.80;1.00
435;DHT22;204;48.942;9.256;2022-12-16T06:45:37;0.80;1.00
435;DHT22;204;48.942;9.256;2022-12-16T06:48:21;0.80;1.00
435;DHT22;204;48.942;9.256;2022-12-16T06:51:05;0.80;1.00
435;DHT22;204;48.942;9.256;2022-12-16T06:53:49;0.80;1.00
435;DHT22;204;48.942;9.256;2022-12-16T06:56:33;0.90;1.00
435;DHT22;204;48.942;9.256;2022-12-16T06:59:17;0.90;1.00
435;DHT22;204;48.942;9.256;2022-12-16T07:02:01;0.90;1.00
435;DHT22;204;48.942;9.256;2022-12-16T07:04:45;0.90;1.00
435;DHT22;204;48.942;9.256;2022-12-16T07:07:29;0.90;1.00
435;DHT22;204;48.942;9.256;2022-12-16T07:10:13;0.90;1.00
435;DHT22;204;48.942;9.256;2022-12-16T07:12:59;0.80;1.00
435;DHT22;204;48.942;9.256;2022-12-16T07:15:45;0.80;1.00
435;DHT22;204;48.942;9.256;2022-12-16T07:18:29;0.80;1.00
435;DHT22;204;48.942;9.256;2022-12-16T07:21:13;0.80;1.00
435;DHT22;204;48.942;9.256;2022-12-16T07:23:57;0.90;1.00
435;DHT22;204;48.942;9.256;2022-12-16T07:26:41;0.90;1.00
435;DHT22;204;48.942;9.256;2022-12-16T07:29:25;1.00;1.00
435;DHT22;204;48.942;9.256;2022-12-16T07:32:26;0.90;1.00
435;DHT22;204;48.942;9.256;2022-12-16T07:35:10;0.90;1.00
435;DHT22;204;48.942;9.256;2022-12-16T07:37:54;1.00;1.00
435;DHT22;204;48.942;9.256;2022-12-16T07:40:38;0.90;1.00
435;DHT22;204;48.942;9.256;2022-12-16T07:43:22;1.00;1.00
435;DHT22;204;48.942;9.256;2022-12-16T07:46:06;1.00;1.00
435;DHT22;204;48.942;9.256;2022-12-16T07:48:50;1.10;1.00
435;DHT22;204;48.942;9.256;2022-12-16T07:51:34;1.10;1.00
435;DHT22;204;48.942;9.256;2022-12-16T07:54:18;1.10;1.00
435;DHT22;204;48.942;9.256;2022-12-16T07:57:03;1.10;1.00
435;DHT22;204;48.942;9.256;2022-12-16T07:59:47;1.10;1.00
435;DHT22;204;48.942;9.256;2022-12-16T08:02:31;1.20;1.00
435;DHT22;204;48.942;9.256;2022-12-16T08:05:15;1.20;1.00
435;DHT22;204;48.942;9.256;2022-12-16T08:07:59;1.20;1.00
435;DHT22;204;48.942;9.256;2022-12-16T08:10:43;1.20;1.00
435;DHT22;204;48.942;9.256;2022-12-16T08:13:27;1.20;1.00
435;DHT22;204;48.942;9.256;2022-12-16T08:16:11;1.10;1.00
435;DHT22;204;48.942;9.256;2022-12-16T08:18:55;1.10;1.00
435;DHT22;204;48.942;9.256;2022-12-16T08:21:39;1.10;1.00
435;DHT22;204;48.942;9.256;2022-12-16T08:24:23;1.00;1.00
435;DHT22;204;48.942;9.256;2022-12-16T08:27:07;1.00;1.00
435;DHT22;204;48.942;9.256;2022-12-16T08:29:51;1.00;1.00
435;DHT22;204;48.942;9.256;2022-12-16T08:32:35;1.00;1.00
435;DHT22;204;48.942;9.256;2022-12-16T08:35:19;1.00;1.00
435;DHT22;204;48.942;9.256;2022-12-16T08:38:03;1.00;1.00
435;DHT22;204;48.942;9.256;2022-12-16T08:40:48;1.00;1.00
435;DHT22;204;48.942;9.256;2022-12-16T08:43:33;1.10;1.00
435;DHT22;204;48.942;9.256;2022-12-16T08:46:17;1.20;1.00
435;DHT22;204;48.942;9.256;2022-12-16T08:49:02;1.20;1.00
435;DHT22;204;48.942;9.256;2022-12-16T08:51:46;1.20;1.00
435;DHT22;204;48.942;9.256;2022-12-16T08:54:30;1.20;1.00
435;DHT22;204;48.942;9.256;2022-12-16T08:57:14;1.30;1.00
435;DHT22;204;48.942;9.256;2022-12-16T08:59:58;1.30;1.00
435;DHT22;204;48.942;9.256;2022-12-16T09:02:42;1.40;1.00
435;DHT22;204;48.942;9.256;2022-12-16T09:05:26;1.40;1.00
435;DHT22;204;48.942;9.256;2022-12-16T09:08:10;1.50;1.00
435;DHT22;204;48.942;9.256;2022-12-16T09:10:59;1.70;1.00
435;DHT22;204;48.942;9.256;2022-12-16T09:13:43;1.80;1.00
435;DHT22;204;48.942;9.256;2022-12-16T09:16:28;1.90;1.00
435;DHT22;204;48.942;9.256;2022-12-16T09:19:12;2.00;1.00
435;DHT22;204;48.942;9.256;2022-12-16T09:21:56;2.10;1.00
435;DHT22;204;48.942;9.256;2022-12-16T09:24:40;2.20;1.00
435;DHT22;204;48.942;9.256;2022-12-16T09:27:24;2.30;1.00
435;DHT22;204;48.942;9.256;2022-12-16T09:30:08;2.40;1.00
435;DHT22;204;48.942;9.256;2022-12-16T09:32:52;2.40;1.00
435;DHT22;204;48.942;9.256;2022-12-16T09:35:36;2.40;1.00
435;DHT22;204;48.942;9.256;2022-12-16T09:38:20;2.40;1.00
435;DHT22;204;48.942;9.256;2022-12-16T09:41:40;2.50;1.00
435;DHT22;204;48.942;9.256;2022-12-16T09:47:25;2.50;1.00
435;DHT22;204;48.942;9.256;2022-12-16T09:50:22;2.40;1.00
435;DHT22;204;48.942;9.256;2022-12-16T09:53:10;2.30;1.00
435;DHT22;204;48.942;9.256;2022-12-16T09:55:56;2.40;1.00
435;DHT22;204;48.942;9.256;2022-12-16T09:58:58;2.40;1.00
435;DHT22;204;48.942;9.256;2022-12-16T10:01:44;2.40;1.00
435;DHT22;204;48.942;9.256;2022-12-16T10:04:28;2.50;1.00
435;DHT22;204;48.942;9.256;2022-12-16T10:07:20;2.60;1.00
435;DHT22;204;48.942;9.256;2022-12-16T10:15:54;2.80;1.00
435;DHT22;204;48.942;9.256;2022-12-16T10:22:19;3.00;1.00
435;DHT22;204;48.942;9.256;2022-12-16T10:25:27;3.10;1.00
435;DHT22;204;48.942;9.256;2022-12-16T10:28:20;3.10;1.00
435;DHT22;204;48.942;9.256;2022-12-16T10:31:13;3.10;1.00
435;DHT22;204;48.942;9.256;2022-12-16T10:33:58;3.20;1.00
435;DHT22;204;48.942;9.256;2022-12-16T10:36:44;3.20;1.00
435;DHT22;204;48.942;9.256;2022-12-16T10:39:36;3.30;1.00
435;DHT22;204;48.942;9.256;2022-12-16T10:42:41;3.20;1.00
435;DHT22;204;48.942;9.256;2022-12-16T10:45:30;3.20;1.00
435;DHT22;204;48.942;9.256;2022-12-16T10:48:22;3.20;1.00
435;DHT22;204;48.942;9.256;2022-12-16T10:51:15;3.30;1.00
435;DHT22;204;48.942;9.256;2022-12-16T11:00:41;3.50;1.00
435;DHT22;204;48.942;9.256;2022-12-16T11:03:31;3.40;1.00
435;DHT22;204;48.942;9.256;2022-12-16T11:06:38;3.40;1.00
435;DHT22;204;48.942;9.256;2022-12-16T11:09:33;3.30;1.00
435;DHT22;204;48.942;9.256;2022-12-16T11:15:30;3.40;1.00
435;DHT22;204;48.942;9.256;2022-12-16T11:18:20;3.40;1.00
435;DHT22;204;48.942;9.256;2022-12-16T11:21:19;3.40;1.00
435;DHT22;204;48.942;9.256;2022-12-16T11:24:15;3.40;1.00
435;DHT22;204;48.942;9.256;2022-12-16T11:27:02;3.50;1.00
435;DHT22;204;48.942;9.256;2022-12-16T11:29:56;3.50;1.00
435;DHT22;204;48.942;9.256;2022-12-16T11:33:22;3.50;1.00
435;DHT22;204;48.942;9.256;2022-12-16T11:36:19;3.60;1.00
435;DHT22;204;48.942;9.256;2022-12-16T11:39:06;3.80;1.00
435;DHT22;204;48.942;9.256;2022-12-16T11:41:58;3.90;1.00
435;DHT22;204;48.942;9.256;2022-12-16T11:44:56;4.00;1.00
435;DHT22;204;48.942;9.256;2022-12-16T11:47:43;4.10;1.00
435;DHT22;204;48.942;9.256;2022-12-16T11:50:31;4.10;1.00
435;DHT22;204;48.942;9.256;2022-12-16T11:53:46;4.00;1.00
435;DHT22;204;48.942;9.256;2022-12-16T11:56:34;4.10;1.00
435;DHT22;204;48.942;9.256;2022-12-16T12:02:33;4.10;1.00
435;DHT22;204;48.942;9.256;2022-12-16T12:05:27;4.20;1.00
435;DHT22;204;48.942;9.256;2022-12-16T12:08:37;4.20;1.00
435;DHT22;204;48.942;9.256;2022-12-16T12:11:42;4.20;1.00
435;DHT22;204;48.942;9.256;2022-12-16T12:14:41;4.20;1.00
435;DHT22;204;48.942;9.256;2022-12-16T12:23:48;4.20;1.00
435;DHT22;204;48.942;9.256;2022-12-16T12:26:37;4.20;1.00
435;DHT22;204;48.942;9.256;2022-12-16T12:35:55;4.10;1.00
435;DHT22;204;48.942;9.256;2022-12-16T12:39:10;4.00;1.00
435;DHT22;204;48.942;9.256;2022-12-16T12:56:51;3.20;1.00
435;DHT22;204;48.942;9.256;2022-12-16T12:59:54;3.10;1.00
435;DHT22;204;48.942;9.256;2022-12-16T13:02:56;2.90;1.00
435;DHT22;204;48.942;9.256;2022-12-16T13:05:44;2.80;1.00
435;DHT22;204;48.942;9.256;2022-12-16T13:11:34;2.70;1.00
435;DHT22;204;48.942;9.256;2022-12-16T13:17:19;2.70;1.00
435;DHT22;204;48.942;9.256;2022-12-16T13:20:43;2.70;1.00
435;DHT22;204;48.942;9.256;2022-12-16T13:23:30;2.70;1.00
435;DHT22;204;48.942;9.256;2022-12-16T13:26:16;2.80;1.00
435;DHT22;204;48.942;9.256;2022-12-16T13:32:23;2.80;1.00
435;DHT22;204;48.942;9.256;2022-12-16T13:38:05;2.80;1.00
435;DHT22;204;48.942;9.256;2022-12-16T13:41:03;2.90;1.00
435;DHT22;204;48.942;9.256;2022-12-16T13:43:56;3.10;1.00
435;DHT22;204;48.942;9.256;2022-12-16T13:46:49;3.10;1.00
435;DHT22;204;48.942;9.256;2022-12-16T13:49:50;3.10;1.00
435;DHT22;204;48.942;9.256;2022-12-16T13:55:22;3.10;1.00
435;DHT22;204;48.942;9.256;2022-12-16T13:58:34;3.00;1.00
435;DHT22;204;48.942;9.256;2022-12-16T14:01:28;2.90;1.00
435;DHT22;204;48.942;9.256;2022-12-16T14:04:23;2.80;1.00
435;DHT22;204;48.942;9.256;2022-12-16T14:07:08;2.70;1.00
435;DHT22;204;48.942;9.256;2022-12-16T14:09:53;2.70;1.00
435;DHT22;204;48.942;9.256;2022-12-16T14:21:49;2.50;1.00
435;DHT22;204;48.942;9.256;2022-12-16T14:24:37;2.40;1.00
435;DHT22;204;48.942;9.256;2022-12-16T14:27:21;2.30;1.00
435;DHT22;204;48.942;9.256;2022-12-16T14:32:59;2.10;1.00
435;DHT22;204;48.942;9.256;2022-12-16T14:35:48;2.00;1.00
435;DHT22;204;48.942;9.256;2022-12-16T14:38:35;2.00;1.00
435;DHT22;204;48.942;9.256;2022-12-16T14:41:20;1.90;1.00
435;DHT22;204;48.942;9.256;2022-12-16T14:47:00;1.90;1.00
435;DHT22;204;48.942;9.256;2022-12-16T14:49:52;1.90;1.00
435;DHT22;204;48.942;9.256;2022-12-16T14:52:37;1.90;1.00
435;DHT22;204;48.942;9.256;2022-12-16T14:55:33;2.00;1.00
435;DHT22;204;48.942;9.256;2022-12-16T14:58:20;2.10;1.00
435;DHT22;204;48.942;9.256;2022-12-16T15:01:14;2.00;1.00
435;DHT22;204;48.942;9.256;2022-12-16T15:04:05;2.10;1.00
435;DHT22;204;48.942;9.256;2022-12-16T15:06:52;2.00;1.00
435;DHT22;204;48.942;9.256;2022-12-16T15:09:41;1.90;1.00
435;DHT22;204;48.942;9.256;2022-12-16T15:12:28;1.80;1.00
435;DHT22;204;48.942;9.256;2022-12-16T15:15:18;1.80;1.00
435;DHT22;204;48.942;9.256;2022-12-16T15:18:15;1.70;1.00
435;DHT22;204;48.942;9.256;2022-12-16T15:21:01;1.70;1.00
435;DHT22;204;48.942;9.256;2022-12-16T15:23:45;1.70;1.00
435;DHT22;204;48.942;9.256;2022-12-16T15:26:31;1.60;1.00
435;DHT22;204;48.942;9.256;2022-12-16T15:32:36;1.70;1.00
435;DHT22;204;48.942;9.256;2022-12-16T15:35:35;1.60;1.00
435;DHT22;204;48.942;9.256;2022-12-16T15:38:29;1.60;1.00
435;DHT22;204;48.942;9.256;2022-12-16T15:44:04;1.50;1.00
435;DHT22;204;48.942;9.256;2022-12-16T15:46:49;1.50;1.00
435;DHT22;204;48.942;9.256;2022-12-16T15:49:38;1.50;1.00
435;DHT22;204;48.942;9.256;2022-12-16T15:52:36;1.50;1.00
435;DHT22;204;48.942;9.256;2022-12-16T15:55:35;1.40;1.00
435;DHT22;204;48.942;9.256;2022-12-16T15:58:34;1.40;1.00
435;DHT22;204;48.942;9.256;2022-12-16T16:01:26;1.30;1.00
435;DHT22;204;48.942;9.256;2022-12-16T16:07:20;1.30;1.00
435;DHT22;204;48.942;9.256;2022-12-16T16:10:19;1.30;1.00
435;DHT22;204;48.942;9.256;2022-12-16T16:13:04;1.20;1.00
435;DHT22;204;48.942;9.256;2022-12-16T16:15:48;1.10;1.00
435;DHT22;204;48.942;9.256;2022-12-16T16:18:33;1.10;1.00
435;DHT22;204;48.942;9.256;2022-12-16T16:21:17;1.10;1.00
435;DHT22;204;48.942;9.256;2022-12-16T16:24:02;1.10;1.00
435;DHT22;204;48.942;9.256;2022-12-16T16:26:46;1.10;1.00
435;DHT22;204;48.942;9.256;2022-12-16T16:29:29;1.20;1.00
435;DHT22;204;48.942;9.256;2022-12-16T16:32:14;1.10;1.00
435;DHT22;204;48.942;9.256;2022-12-16T16:34:57;1.10;1.00
435;DHT22;204;48.942;9.256;2022-12-16T16:37:41;1.20;1.00
435;DHT22;204;48.942;9.256;2022-12-16T16:40:35;1.20;1.00
435;DHT22;204;48.942;9.256;2022-12-16T16:43:19;1.20;1.00
435;DHT22;204;48.942;9.256;2022-12-16T16:46:24;1.20;1.00
435;DHT22;204;48.942;9.256;2022-12-16T16:49:15;1.20;1.00
435;DHT22;204;48.942;9.256;2022-12-16T16:52:03;1.30;1.00
435;DHT22;204;48.942;9.256;2022-12-16T16:54:47;1.30;1.00
435;DHT22;204;48.942;9.256;2022-12-16T16:57:33;1.30;1.00
435;DHT22;204;48.942;9.256;2022-12-16T17:00:20;1.20;1.00
435;DHT22;204;48.942;9.256;2022-12-16T17:03:04;1.20;1.00
435;DHT22;204;48.942;9.256;2022-12-16T17:05:48;1.10;1.00
435;DHT22;204;48.942;9.256;2022-12-16T17:08:32;1.00;1.00
435;DHT22;204;48.942;9.256;2022-12-16T17:11:18;1.00;1.00
435;DHT22;204;48.942;9.256;2022-12-16T17:14:03;0.90;1.00
435;DHT22;204;48.942;9.256;2022-12-16T17:16:48;0.90;1.00
435;DHT22;204;48.942;9.256;2022-12-16T17:19:32;0.80;1.00
435;DHT22;204;48.942;9.256;2022-12-16T17:22:16;0.80;1.00
435;DHT22;204;48.942;9.256;2022-12-16T17:25:00;0.80;1.00
435;DHT22;204;48.942;9.256;2022-12-16T17:27:44;0.80;1.00
435;DHT22;204;48.942;9.256;2022-12-16T17:30:29;0.70;1.00
435;DHT22;204;48.942;9.256;2022-12-16T17:33:15;0.70;1.00
435;DHT22;204;48.942;9.256;2022-12-16T17:35:59;0.60;1.00
435;DHT22;204;48.942;9.256;2022-12-16T17:38:43;0.60;1.00
435;DHT22;204;48.942;9.256;2022-12-16T17:41:29;0.60;1.00
435;DHT22;204;48.942;9.256;2022-12-16T17:44:14;0.60;1.00
435;DHT22;204;48.942;9.256;2022-12-16T17:46:58;0.60;1.00
435;DHT22;204;48.942;9.256;2022-12-16T17:49:42;0.70;1.00
435;DHT22;204;48.942;9.256;2022-12-16T17:52:26;0.70;1.00
435;DHT22;204;48.942;9.256;2022-12-16T17:55:10;0.70;1.00
435;DHT22;204;48.942;9.256;2022-12-16T17:57:55;0.70;1.00
435;DHT22;204;48.942;9.256;2022-12-16T18:00:39;0.70;1.00
435;DHT22;204;48.942;9.256;2022-12-16T18:03:28;0.80;1.00
435;DHT22;204;48.942;9.256;2022-12-16T18:06:12;0.80;1.00
435;DHT22;204;48.942;9.256;2022-12-16T18:08:56;0.80;1.00
435;DHT22;204;48.942;9.256;2022-12-16T18:11:40;0.70;1.00
435;DHT22;204;48.942;9.256;2022-12-16T18:14:24;0.70;1.00
435;DHT22;204;48.942;9.256;2022-12-16T18:17:08;0.70;1.00
435;DHT22;204;48.942;9.256;2022-12-16T18:19:52;0.70;1.00
435;DHT22;204;48.942;9.256;2022-12-16T18:22:36;0.70;1.00
435;DHT22;204;48.942;9.256;2022-12-16T18:25:20;0.60;1.00
435;DHT22;204;48.942;9.256;2022-12-16T18:28:04;0.70;1.00
435;DHT22;204;48.942;9.256;2022-12-16T18:30:49;0.70;1.00
435;DHT22;204;48.942;9.256;2022-12-16T18:33:33;0.70;1.00
435;DHT22;204;48.942;9.256;2022-12-16T18:36:17;0.70;1.00
435;DHT22;204;48.942;9.256;2022-12-16T18:39:01;0.70;1.00
435;DHT22;204;48.942;9.256;2022-12-16T18:41:46;0.70;1.00
435;DHT22;204;48.942;9.256;2022-12-16T18:44:31;0.70;1.00
435;DHT22;204;48.942;9.256;2022-12-16T18:47:16;0.70;1.00
435;DHT22;204;48.942;9.256;2022-12-16T18:50:00;0.70;1.00
435;DHT22;204;48.942;9.256;2022-12-16T18:52:44;0.70;1.00
435;DHT22;204;48.942;9.256;2022-12-16T18:55:28;0.70;1.00
435;DHT22;204;48.942;9.256;2022-12-16T18:58:13;0.70;1.00
435;DHT22;204;48.942;9.256;2022-12-16T19:03:45;0.70;1.00
435;DHT22;204;48.942;9.256;2022-12-16T19:06:30;0.70;1.00
435;DHT22;204;48.942;9.256;2022-12-16T19:09:14;0.70;1.00
435;DHT22;204;48.942;9.256;2022-12-16T19:11:58;0.70;1.00
435;DHT22;204;48.942;9.256;2022-12-16T19:14:41;0.70;1.00
435;DHT22;204;48.942;9.256;2022-12-16T19:17:25;0.70;1.00
435;DHT22;204;48.942;9.256;2022-12-16T19:20:09;0.60;1.00
435;DHT22;204;48.942;9.256;2022-12-16T19:22:53;0.70;1.00
435;DHT22;204;48.942;9.256;2022-12-16T19:25:37;0.60;1.00
435;DHT22;204;48.942;9.256;2022-12-16T19:28:21;0.60;1.00
435;DHT22;204;48.942;9.256;2022-12-16T19:31:05;0.60;1.00
435;DHT22;204;48.942;9.256;2022-12-16T19:33:54;0.60;1.00
435;DHT22;204;48.942;9.256;2022-12-16T19:36:39;0.60;1.00
435;DHT22;204;48.942;9.256;2022-12-16T19:39:23;0.50;1.00
435;DHT22;204;48.942;9.256;2022-12-16T19:42:08;0.50;1.00
435;DHT22;204;48.942;9.256;2022-12-16T19:44:52;0.50;1.00
435;DHT22;204;48.942;9.256;2022-12-16T19:47:36;0.50;1.00
435;DHT22;204;48.942;9.256;2022-12-16T19:50:20;0.50;1.00
435;DHT22;204;48.942;9.256;2022-12-16T19:53:04;0.50;1.00
435;DHT22;204;48.942;9.256;2022-12-16T19:55:59;0.50;1.00
435;DHT22;204;48.942;9.256;2022-12-16T19:58:44;0.50;1.00
435;DHT22;204;48.942;9.256;2022-12-16T20:01:28;0.50;1.00
435;DHT22;204;48.942;9.256;2022-12-16T20:04:12;0.50;1.00
435;DHT22;204;48.942;9.256;2022-12-16T20:06:56;0.40;1.00
435;DHT22;204;48.942;9.256;2022-12-16T20:09:40;0.50;1.00
435;DHT22;204;48.942;9.256;2022-12-16T20:12:24;0.40;1.00
435;DHT22;204;48.942;9.256;2022-12-16T20:15:08;0.40;1.00
435;DHT22;204;48.942;9.256;2022-12-16T20:17:52;0.40;1.00
435;DHT22;204;48.942;9.256;2022-12-16T20:20:36;0.40;1.00
435;DHT22;204;48.942;9.256;2022-12-16T20:23:20;0.40;1.00
435;DHT22;204;48.942;9.256;2022-12-16T20:26:04;0.40;1.00
435;DHT22;204;48.942;9.256;2022-12-16T20:28:48;0.40;1.00
435;DHT22;204;48.942;9.256;2022-12-16T20:31:32;0.40;1.00
435;DHT22;204;48.942;9.256;2022-12-16T20:34:16;0.40;1.00
435;DHT22;204;48.942;9.256;2022-12-16T20:37:01;0.40;1.00
435;DHT22;204;48.942;9.256;2022-12-16T20:39:45;0.40;1.00
435;DHT22;204;48.942;9.256;2022-12-16T20:42:29;0.40;1.00
435;DHT22;204;48.942;9.256;2022-12-16T20:45:20;0.40;1.00
435;DHT22;204;48.942;9.256;2022-12-16T20:48:05;0.40;1.00
435;DHT22;204;48.942;9.256;2022-12-16T20:50:54;0.30;1.00
435;DHT22;204;48.942;9.256;2022-12-16T20:53:38;0.30;1.00
435;DHT22;204;48.942;9.256;2022-12-16T20:56:22;0.30;1.00
435;DHT22;204;48.942;9.256;2022-12-16T20:59:06;0.20;1.00
435;DHT22;204;48.942;9.256;2022-12-16T21:01:50;0.20;1.00
435;DHT22;204;48.942;9.256;2022-12-16T21:04:34;0.20;1.00